ADT,Max TemperatureF,Mean TemperatureF,Min TemperatureF,Max Dew PointF,MeanDew PointF,Min DewpointF,Max Humidity, Mean Humidity, Min Humidity, Max Sea Level PressureIn, Mean Sea Level PressureIn, Min Sea Level PressureIn, Max VisibilityMiles, Mean VisibilityMiles, Min VisibilityMiles, Max Wind SpeedMPH, Mean Wind SpeedMPH, Max Gust SpeedMPH,PrecipitationIn, CloudCover, Events, WindDirDegrees
2014-3-1,21,11,1,18,0,-9,93,55,29,30.51,30.36,30.14,15,13,1,21,9,23,0.02,4,Snow,198
2014-3-2,29,20,10,27,18,1,93,82,62,30.12,29.98,29.93,15,7,2,16,11,21,0.03,8,Snow,317
2014-3-3,14,5,-4,1,-3,-6,92,61,31,30.14,29.97,29.92,15,15,15,13,6,22,0.00,4,Snow,294
2014-3-4,11,3,-5,0,-8,-13,72,56,27,30.29,30.25,30.16,15,15,15,10,7,,0.00,3,,247
2014-3-5,9,2,-4,1,-7,-13,73,58,30,30.37,30.34,30.30,15,15,15,9,7,,0.00,4,,305
2014-3-6,17,4,-9,1,-4,-15,72,56,35,30.43,30.39,30.33,15,15,15,14,8,,0.00,1,,269
2014-3-7,33,20,6,16,5,-8,69,50,26,30.43,30.28,30.05,15,15,15,22,10,29,0.00,1,Snow,216
2014-3-8,41,28,16,34,24,12,100,85,63,30.04,29.76,29.60,15,15,12,17,8,24,0.00,4,Fog-Snow,203
2014-3-9,24,16,8,19,12,5,85,68,51,29.80,29.74,29.68,15,15,15,14,9,22,0.00,5,Snow,340
2014-3-10,22,12,3,10,4,1,86,61,27,29.84,29.81,29.79,15,15,15,10,6,,0.00,3,,261
2014-3-11,32,22,11,28,17,1,93,77,49,29.83,29.69,29.57,15,11,0,15,8,20,0.08,6,Snow,137
2014-3-12,41,34,27,32,28,21,100,84,39,29.74,29.67,29.59,15,10,0,20,7,22,0.67,7,Snow,219
2014-3-13,31,22,14,32,19,10,100,93,80,29.55,29.18,28.93,4,2,0,28,20,38,0.55,8,Rain-Snow,3
2014-3-14,20,14,7,14,8,3,86,77,58,30.08,29.83,29.42,15,14,2,14,10,22,0.01,4,Snow,258
2014-3-15,41,28,14,37,28,12,100,89,71,30.07,29.88,29.65,15,12,2,26,14,36,0.16,7,Rain-Snow,155
2014-3-16,37,28,17,37,22,1,100,71,27,29.80,29.63,29.57,15,13,6,23,12,38,0.02,6,Rain,236
2014-3-17,17,12,6,-2,-4,-8,61,47,27,29.97,29.92,29.83,15,15,15,22,16,36,0.00,1,,259
2014-3-18,22,14,7,9,1,-4,68,55,39,30.31,30.14,29.97,15,15,15,12,10,18,0.00,1,,268
2014-3-19,29,21,13,19,12,7,80,65,37,30.40,30.34,30.30,15,15,15,8,6,,0.00,3,,274
2014-3-20,37,30,23,37,28,16,100,85,61,30.28,29.89,29.49,15,11,2,30,12,40,0.12,8,Rain-Snow,134
2014-3-21,39,35,31,37,31,25,100,83,51,29.65,29.53,29.47,15,12,1,18,14,29,0.00,6,Rain,214
2014-3-22,35,31,27,30,24,18,100,74,41,29.88,29.76,29.61,15,11,1,15,11,24,0.12,6,Snow,227
2014-3-23,35,29,21,30,23,7,100,75,37,29.83,29.71,29.60,15,11,1,22,11,31,0.02,6,Snow,253
2014-3-24,15,10,5,7,1,-2,67,58,43,29.87,29.82,29.78,15,14,10,18,13,28,0.00,4,Snow,294
2014-3-25,24,16,9,9,2,-1,68,51,20,30.22,30.07,29.88,15,15,15,16,12,29,0.00,2,Snow,251
2014-3-26,24,20,15,23,17,7,100,83,58,30.23,29.70,28.93,15,7,0,44,15,58,0.79,5,Snow,70
2014-3-27,28,24,21,21,15,3,93,70,34,30.09,29.51,28.94,15,7,0,33,26,54,0.12,4,Snow,292
2014-3-28,37,28,19,36,20,3,100,67,31,30.29,30.14,29.93,15,11,1,17,11,24,0.16,6,Rain-Snow,181
2014-3-29,39,32,26,39,33,25,100,86,53,30.41,30.11,29.89,15,10,1,15,11,24,0.04,6,Rain,278
2014-3-30,33,30,26,32,28,25,100,90,78,30.43,30.26,29.98,15,8,1,21,11,36,0.87,8,Rain-Snow,62
2014-3-31,33,30,28,32,29,26,100,94,86,29.94,29.87,29.81,15,6,1,36,24,47,0.51,8,Rain-Snow,48